Main page
METAR-TAF:

METAR-TAF

Airports :

Kerry Airport

Killarney, Ireland

latitude: 52-10-51N, longitude: 9-31-26W, elevation: 34 m

Current weather observation

The report was made 9 hours and 10 minutes ago, at 18:30 UTC
Wind 3 kt from the North/Northeast, varying between North/Northwest and East
Temperature 11°C
Humidity 82%
Pressure 1015 hPa
Visibility 10 km or more
Broken clouds at a height of 2800 ft

METAR: EIKY 221830Z 03003KT 330V100 9999 BKN028 11/08 Q1015

Time: 04:40 (03:40 UTC)

Forecast

The report was made 13 hours and 40 minutes ago, at 14:00 UTC
Forecast valid from 22 at 15 UTC to 22 at 21 UTC
Wind 9 kt from the East
Visibility 10 km or more
Few clouds at a height of 1000 ft
Broken clouds at a height of 2000 ft
Temporary
from 22 at 15 UTC to 22 at 16 UTC
Broken clouds at a height of 1000 ft
Probability 30% :
Temporary
from 22 at 15 UTC to 22 at 16 UTC
Visibility: 4000 m
rain

TAF: EIKY 221400Z 2215/2221 08009KT 9999 FEW010 BKN020 TEMPO 2215/2216 BKN010 PROB30 TEMPO 2215/2216 4000 RA

Weather observations and forecasts of more than 4000 airports (METAR and TAF reports).

The available stations are represented by yellow and red dots on the map.

Hover mouse over dot to see the name of the station.

Then click to see weather observations and forecasts.

To change the map : click on the green buttons with a black cross to zoom in, on the green button with a dash to zoom out, or on the green arrows for adjacent maps.


METAR-TAF: